sensor_id;sensor_type;location;lat;lon;timestamp;P1;durP1;ratioP1;P2;durP2;ratioP2
69410;SDS011;56604;48.652;9.194;2023-04-24T00:00:02;1.33;;;1.23;;
69410;SDS011;56604;48.652;9.194;2023-04-24T00:02:30;1.40;;;1.30;;
69410;SDS011;56604;48.652;9.194;2023-04-24T00:04:57;2.17;;;1.53;;
69410;SDS011;56604;48.652;9.194;2023-04-24T00:07:27;0.90;;;0.90;;
69410;SDS011;56604;48.652;9.194;2023-04-24T00:09:52;4.40;;;1.40;;
69410;SDS011;56604;48.652;9.194;2023-04-24T00:12:18;3.37;;;1.40;;
69410;SDS011;56604;48.652;9.194;2023-04-24T00:14:43;4.30;;;1.27;;
69410;SDS011;56604;48.652;9.194;2023-04-24T00:17:08;2.37;;;1.10;;
69410;SDS011;56604;48.652;9.194;2023-04-24T00:19:34;1.80;;;0.93;;
69410;SDS011;56604;48.652;9.194;2023-04-24T00:21:59;1.20;;;1.10;;
69410;SDS011;56604;48.652;9.194;2023-04-24T00:24:24;1.33;;;1.33;;
69410;SDS011;56604;48.652;9.194;2023-04-24T00:26:50;1.40;;;1.30;;
69410;SDS011;56604;48.652;9.194;2023-04-24T00:29:15;1.50;;;1.03;;
69410;SDS011;56604;48.652;9.194;2023-04-24T00:31:40;2.23;;;1.10;;
69410;SDS011;56604;48.652;9.194;2023-04-24T00:34:05;2.63;;;0.97;;
69410;SDS011;56604;48.652;9.194;2023-04-24T00:36:31;3.03;;;1.10;;
69410;SDS011;56604;48.652;9.194;2023-04-24T00:38:57;1.00;;;1.00;;
69410;SDS011;56604;48.652;9.194;2023-04-24T00:41:22;4.40;;;1.10;;
69410;SDS011;56604;48.652;9.194;2023-04-24T00:43:49;0.90;;;0.90;;
69410;SDS011;56604;48.652;9.194;2023-04-24T00:46:15;2.87;;;0.93;;
69410;SDS011;56604;48.652;9.194;2023-04-24T00:48:41;2.33;;;0.97;;
69410;SDS011;56604;48.652;9.194;2023-04-24T00:51:08;1.43;;;1.00;;
69410;SDS011;56604;48.652;9.194;2023-04-24T00:53:33;1.50;;;1.20;;
69410;SDS011;56604;48.652;9.194;2023-04-24T00:55:59;1.07;;;0.90;;
69410;SDS011;56604;48.652;9.194;2023-04-24T00:58:25;0.90;;;0.90;;
69410;SDS011;56604;48.652;9.194;2023-04-24T01:00:51;1.27;;;0.83;;
69410;SDS011;56604;48.652;9.194;2023-04-24T01:03:20;1.00;;;0.97;;
69410;SDS011;56604;48.652;9.194;2023-04-24T01:05:47;3.50;;;1.00;;
69410;SDS011;56604;48.652;9.194;2023-04-24T01:08:14;1.13;;;1.00;;
69410;SDS011;56604;48.652;9.194;2023-04-24T01:10:40;1.90;;;0.90;;
69410;SDS011;56604;48.652;9.194;2023-04-24T01:13:07;5.93;;;1.40;;
69410;SDS011;56604;48.652;9.194;2023-04-24T01:15:33;1.60;;;1.10;;
69410;SDS011;56604;48.652;9.194;2023-04-24T01:17:59;0.90;;;0.90;;
69410;SDS011;56604;48.652;9.194;2023-04-24T01:20:24;0.80;;;0.80;;
69410;SDS011;56604;48.652;9.194;2023-04-24T01:22:51;0.70;;;0.70;;
69410;SDS011;56604;48.652;9.194;2023-04-24T01:25:16;1.67;;;1.10;;
69410;SDS011;56604;48.652;9.194;2023-04-24T01:27:41;0.70;;;0.70;;
69410;SDS011;56604;48.652;9.194;2023-04-24T01:30:07;0.77;;;0.70;;
69410;SDS011;56604;48.652;9.194;2023-04-24T01:32:33;2.20;;;0.90;;
69410;SDS011;56604;48.652;9.194;2023-04-24T01:35:00;0.70;;;0.70;;
69410;SDS011;56604;48.652;9.194;2023-04-24T01:37:25;1.10;;;1.00;;
69410;SDS011;56604;48.652;9.194;2023-04-24T01:39:51;1.00;;;1.00;;
69410;SDS011;56604;48.652;9.194;2023-04-24T01:42:17;1.10;;;1.00;;
69410;SDS011;56604;48.652;9.194;2023-04-24T01:44:42;1.37;;;1.03;;
69410;SDS011;56604;48.652;9.194;2023-04-24T01:47:08;5.70;;;1.13;;
69410;SDS011;56604;48.652;9.194;2023-04-24T01:49:33;10.43;;;0.97;;
69410;SDS011;56604;48.652;9.194;2023-04-24T01:51:59;2.30;;;1.23;;
69410;SDS011;56604;48.652;9.194;2023-04-24T01:54:24;2.00;;;1.00;;
69410;SDS011;56604;48.652;9.194;2023-04-24T01:56:50;1.87;;;1.10;;
69410;SDS011;56604;48.652;9.194;2023-04-24T01:59:16;3.40;;;0.80;;
69410;SDS011;56604;48.652;9.194;2023-04-24T02:01:42;5.00;;;1.23;;
69410;SDS011;56604;48.652;9.194;2023-04-24T02:04:07;0.83;;;0.83;;
69410;SDS011;56604;48.652;9.194;2023-04-24T02:06:33;1.80;;;0.90;;
69410;SDS011;56604;48.652;9.194;2023-04-24T02:08:59;1.20;;;1.10;;
69410;SDS011;56604;48.652;9.194;2023-04-24T02:11:24;1.40;;;1.30;;
69410;SDS011;56604;48.652;9.194;2023-04-24T02:13:50;2.83;;;0.80;;
69410;SDS011;56604;48.652;9.194;2023-04-24T02:16:16;1.00;;;0.80;;
69410;SDS011;56604;48.652;9.194;2023-04-24T02:18:42;0.83;;;0.83;;
69410;SDS011;56604;48.652;9.194;2023-04-24T02:21:07;1.50;;;0.83;;
69410;SDS011;56604;48.652;9.194;2023-04-24T02:23:32;1.10;;;1.00;;
69410;SDS011;56604;48.652;9.194;2023-04-24T02:25:58;1.47;;;1.37;;
69410;SDS011;56604;48.652;9.194;2023-04-24T02:28:23;1.43;;;0.90;;
69410;SDS011;56604;48.652;9.194;2023-04-24T02:30:48;0.83;;;0.83;;
69410;SDS011;56604;48.652;9.194;2023-04-24T02:33:15;2.60;;;1.03;;
69410;SDS011;56604;48.652;9.194;2023-04-24T02:35:40;4.80;;;1.00;;
69410;SDS011;56604;48.652;9.194;2023-04-24T02:38:06;1.00;;;0.90;;
69410;SDS011;56604;48.652;9.194;2023-04-24T02:40:31;1.70;;;0.90;;
69410;SDS011;56604;48.652;9.194;2023-04-24T02:42:56;3.50;;;1.00;;
69410;SDS011;56604;48.652;9.194;2023-04-24T02:45:22;0.80;;;0.80;;
69410;SDS011;56604;48.652;9.194;2023-04-24T02:47:47;2.03;;;1.00;;
69410;SDS011;56604;48.652;9.194;2023-04-24T02:50:12;0.83;;;0.80;;
69410;SDS011;56604;48.652;9.194;2023-04-24T02:52:37;4.33;;;1.10;;
69410;SDS011;56604;48.652;9.194;2023-04-24T02:55:03;1.43;;;0.90;;
69410;SDS011;56604;48.652;9.194;2023-04-24T02:57:29;2.57;;;0.93;;
69410;SDS011;56604;48.652;9.194;2023-04-24T02:59:54;3.03;;;1.07;;
69410;SDS011;56604;48.652;9.194;2023-04-24T03:02:20;1.00;;;1.00;;
69410;SDS011;56604;48.652;9.194;2023-04-24T03:04:45;1.53;;;1.00;;
69410;SDS011;56604;48.652;9.194;2023-04-24T03:07:12;1.27;;;0.90;;
69410;SDS011;56604;48.652;9.194;2023-04-24T03:09:39;2.20;;;1.00;;
69410;SDS011;56604;48.652;9.194;2023-04-24T03:12:05;1.27;;;1.03;;
69410;SDS011;56604;48.652;9.194;2023-04-24T03:14:30;8.13;;;1.00;;
69410;SDS011;56604;48.652;9.194;2023-04-24T03:16:56;1.30;;;0.87;;
69410;SDS011;56604;48.652;9.194;2023-04-24T03:19:21;2.97;;;1.00;;
69410;SDS011;56604;48.652;9.194;2023-04-24T03:21:47;0.80;;;0.80;;
69410;SDS011;56604;48.652;9.194;2023-04-24T03:24:12;4.10;;;1.10;;
69410;SDS011;56604;48.652;9.194;2023-04-24T03:26:38;1.10;;;1.10;;
69410;SDS011;56604;48.652;9.194;2023-04-24T03:29:03;0.90;;;0.90;;
69410;SDS011;56604;48.652;9.194;2023-04-24T03:31:28;2.63;;;0.93;;
69410;SDS011;56604;48.652;9.194;2023-04-24T03:33:54;1.10;;;1.10;;
69410;SDS011;56604;48.652;9.194;2023-04-24T03:36:19;5.43;;;1.20;;
69410;SDS011;56604;48.652;9.194;2023-04-24T03:38:45;2.57;;;1.03;;
69410;SDS011;56604;48.652;9.194;2023-04-24T03:41:10;3.03;;;1.13;;
69410;SDS011;56604;48.652;9.194;2023-04-24T03:43:36;3.10;;;1.63;;
69410;SDS011;56604;48.652;9.194;2023-04-24T03:46:02;1.10;;;1.10;;
69410;SDS011;56604;48.652;9.194;2023-04-24T03:48:27;1.17;;;1.03;;
69410;SDS011;56604;48.652;9.194;2023-04-24T03:50:53;1.37;;;0.80;;
69410;SDS011;56604;48.652;9.194;2023-04-24T03:53:18;3.87;;;1.60;;
69410;SDS011;56604;48.652;9.194;2023-04-24T03:55:44;1.00;;;1.00;;
69410;SDS011;56604;48.652;9.194;2023-04-24T03:58:10;4.10;;;1.00;;
69410;SDS011;56604;48.652;9.194;2023-04-24T04:00:36;1.20;;;1.10;;
69410;SDS011;56604;48.652;9.194;2023-04-24T04:03:02;3.30;;;1.30;;
69410;SDS011;56604;48.652;9.194;2023-04-24T04:05:28;0.90;;;0.90;;
69410;SDS011;56604;48.652;9.194;2023-04-24T04:07:53;1.13;;;1.00;;
69410;SDS011;56604;48.652;9.194;2023-04-24T04:10:19;2.87;;;2.10;;
69410;SDS011;56604;48.652;9.194;2023-04-24T04:12:44;2.47;;;1.23;;
69410;SDS011;56604;48.652;9.194;2023-04-24T04:15:09;1.30;;;1.20;;
69410;SDS011;56604;48.652;9.194;2023-04-24T04:17:35;3.50;;;0.80;;
69410;SDS011;56604;48.652;9.194;2023-04-24T04:20:00;1.27;;;1.27;;
69410;SDS011;56604;48.652;9.194;2023-04-24T04:22:26;1.37;;;0.97;;
69410;SDS011;56604;48.652;9.194;2023-04-24T04:24:52;3.60;;;1.10;;
69410;SDS011;56604;48.652;9.194;2023-04-24T04:27:17;1.70;;;1.00;;
69410;SDS011;56604;48.652;9.194;2023-04-24T04:29:43;0.90;;;0.70;;
69410;SDS011;56604;48.652;9.194;2023-04-24T04:32:09;0.90;;;0.90;;
69410;SDS011;56604;48.652;9.194;2023-04-24T04:34:34;0.93;;;0.83;;
69410;SDS011;56604;48.652;9.194;2023-04-24T04:37:02;1.00;;;1.00;;
69410;SDS011;56604;48.652;9.194;2023-04-24T04:39:28;1.13;;;0.90;;
69410;SDS011;56604;48.652;9.194;2023-04-24T04:41:54;1.30;;;0.80;;
69410;SDS011;56604;48.652;9.194;2023-04-24T04:44:20;1.23;;;0.87;;
69410;SDS011;56604;48.652;9.194;2023-04-24T04:46:45;0.87;;;0.87;;
69410;SDS011;56604;48.652;9.194;2023-04-24T04:49:11;3.83;;;1.10;;
69410;SDS011;56604;48.652;9.194;2023-04-24T04:51:36;1.17;;;1.17;;
69410;SDS011;56604;48.652;9.194;2023-04-24T04:54:01;1.73;;;1.30;;
69410;SDS011;56604;48.652;9.194;2023-04-24T04:56:27;1.63;;;1.20;;
69410;SDS011;56604;48.652;9.194;2023-04-24T04:58:52;1.20;;;1.20;;
69410;SDS011;56604;48.652;9.194;2023-04-24T05:01:18;1.60;;;1.50;;
69410;SDS011;56604;48.652;9.194;2023-04-24T05:03:43;2.10;;;2.00;;
69410;SDS011;56604;48.652;9.194;2023-04-24T05:06:09;2.10;;;2.00;;
69410;SDS011;56604;48.652;9.194;2023-04-24T05:08:34;3.63;;;2.57;;
69410;SDS011;56604;48.652;9.194;2023-04-24T05:10:59;1.93;;;1.80;;
69410;SDS011;56604;48.652;9.194;2023-04-24T05:13:25;2.10;;;2.00;;
69410;SDS011;56604;48.652;9.194;2023-04-24T05:15:50;2.27;;;2.03;;
69410;SDS011;56604;48.652;9.194;2023-04-24T05:18:16;1.70;;;1.60;;
69410;SDS011;56604;48.652;9.194;2023-04-24T05:20:41;2.03;;;1.90;;
69410;SDS011;56604;48.652;9.194;2023-04-24T05:23:08;10.67;;;1.90;;
69410;SDS011;56604;48.652;9.194;2023-04-24T05:25:34;2.60;;;2.40;;
69410;SDS011;56604;48.652;9.194;2023-04-24T05:28:00;1.60;;;1.60;;
69410;SDS011;56604;48.652;9.194;2023-04-24T05:30:25;2.17;;;2.00;;
69410;SDS011;56604;48.652;9.194;2023-04-24T05:32:51;1.70;;;1.60;;
69410;SDS011;56604;48.652;9.194;2023-04-24T05:35:16;2.07;;;1.80;;
69410;SDS011;56604;48.652;9.194;2023-04-24T05:37:42;2.03;;;2.03;;
69410;SDS011;56604;48.652;9.194;2023-04-24T05:40:07;2.07;;;1.97;;
69410;SDS011;56604;48.652;9.194;2023-04-24T05:42:33;4.60;;;1.70;;
69410;SDS011;56604;48.652;9.194;2023-04-24T05:44:59;1.63;;;1.53;;
69410;SDS011;56604;48.652;9.194;2023-04-24T05:47:24;1.73;;;1.63;;
69410;SDS011;56604;48.652;9.194;2023-04-24T05:49:51;1.50;;;1.50;;
69410;SDS011;56604;48.652;9.194;2023-04-24T05:52:16;2.60;;;2.20;;
69410;SDS011;56604;48.652;9.194;2023-04-24T05:54:42;2.13;;;2.00;;
69410;SDS011;56604;48.652;9.194;2023-04-24T05:57:07;1.90;;;1.80;;
69410;SDS011;56604;48.652;9.194;2023-04-24T05:59:33;1.77;;;1.67;;
69410;SDS011;56604;48.652;9.194;2023-04-24T06:02:00;1.73;;;1.63;;
69410;SDS011;56604;48.652;9.194;2023-04-24T06:04:25;1.60;;;1.60;;
69410;SDS011;56604;48.652;9.194;2023-04-24T06:06:50;1.67;;;1.67;;
69410;SDS011;56604;48.652;9.194;2023-04-24T06:09:20;2.60;;;1.73;;
69410;SDS011;56604;48.652;9.194;2023-04-24T06:11:46;1.67;;;1.63;;
69410;SDS011;56604;48.652;9.194;2023-04-24T06:14:12;1.70;;;1.60;;
69410;SDS011;56604;48.652;9.194;2023-04-24T06:16:37;1.87;;;1.70;;
69410;SDS011;56604;48.652;9.194;2023-04-24T06:19:03;1.87;;;1.77;;
69410;SDS011;56604;48.652;9.194;2023-04-24T06:21:29;1.87;;;1.77;;
69410;SDS011;56604;48.652;9.194;2023-04-24T06:23:54;1.40;;;1.40;;
69410;SDS011;56604;48.652;9.194;2023-04-24T06:26:21;1.80;;;1.70;;
69410;SDS011;56604;48.652;9.194;2023-04-24T06:28:47;1.43;;;1.37;;
69410;SDS011;56604;48.652;9.194;2023-04-24T06:31:12;1.30;;;1.30;;
69410;SDS011;56604;48.652;9.194;2023-04-24T06:33:37;1.77;;;1.67;;
69410;SDS011;56604;48.652;9.194;2023-04-24T06:36:03;1.30;;;1.30;;
69410;SDS011;56604;48.652;9.194;2023-04-24T06:38:29;0.97;;;0.97;;
69410;SDS011;56604;48.652;9.194;2023-04-24T06:40:54;1.30;;;1.20;;
69410;SDS011;56604;48.652;9.194;2023-04-24T06:43:20;1.47;;;1.30;;
69410;SDS011;56604;48.652;9.194;2023-04-24T06:45:45;1.00;;;1.00;;
69410;SDS011;56604;48.652;9.194;2023-04-24T06:48:11;1.43;;;1.20;;
69410;SDS011;56604;48.652;9.194;2023-04-24T06:50:37;1.80;;;1.30;;
69410;SDS011;56604;48.652;9.194;2023-04-24T06:53:02;1.23;;;1.20;;
69410;SDS011;56604;48.652;9.194;2023-04-24T06:55:27;1.47;;;1.30;;
69410;SDS011;56604;48.652;9.194;2023-04-24T06:57:53;1.47;;;1.17;;
69410;SDS011;56604;48.652;9.194;2023-04-24T07:00:18;1.40;;;1.30;;
69410;SDS011;56604;48.652;9.194;2023-04-24T07:02:44;2.57;;;1.70;;
69410;SDS011;56604;48.652;9.194;2023-04-24T07:05:09;3.00;;;1.60;;
69410;SDS011;56604;48.652;9.194;2023-04-24T07:07:34;3.03;;;1.60;;
69410;SDS011;56604;48.652;9.194;2023-04-24T07:10:02;4.17;;;1.70;;
69410;SDS011;56604;48.652;9.194;2023-04-24T07:12:29;1.63;;;1.53;;
69410;SDS011;56604;48.652;9.194;2023-04-24T07:14:54;1.47;;;1.43;;
69410;SDS011;56604;48.652;9.194;2023-04-24T07:17:20;2.23;;;1.60;;
69410;SDS011;56604;48.652;9.194;2023-04-24T07:19:45;1.20;;;1.10;;
69410;SDS011;56604;48.652;9.194;2023-04-24T07:22:11;1.80;;;1.30;;
69410;SDS011;56604;48.652;9.194;2023-04-24T07:24:41;3.70;;;1.93;;
69410;SDS011;56604;48.652;9.194;2023-04-24T07:27:08;2.90;;;1.37;;
69410;SDS011;56604;48.652;9.194;2023-04-24T07:29:33;1.70;;;1.60;;
69410;SDS011;56604;48.652;9.194;2023-04-24T07:31:58;1.93;;;1.77;;
69410;SDS011;56604;48.652;9.194;2023-04-24T07:34:24;1.67;;;1.53;;
69410;SDS011;56604;48.652;9.194;2023-04-24T07:36:49;1.53;;;1.43;;
69410;SDS011;56604;48.652;9.194;2023-04-24T07:39:15;1.30;;;1.30;;
69410;SDS011;56604;48.652;9.194;2023-04-24T07:41:40;1.43;;;1.30;;
69410;SDS011;56604;48.652;9.194;2023-04-24T07:44:05;3.70;;;1.23;;
69410;SDS011;56604;48.652;9.194;2023-04-24T07:46:31;1.30;;;1.30;;
69410;SDS011;56604;48.652;9.194;2023-04-24T07:48:56;1.47;;;1.37;;
69410;SDS011;56604;48.652;9.194;2023-04-24T07:51:24;2.50;;;1.40;;
69410;SDS011;56604;48.652;9.194;2023-04-24T07:53:51;1.03;;;1.03;;
69410;SDS011;56604;48.652;9.194;2023-04-24T07:56:16;1.40;;;1.30;;
69410;SDS011;56604;48.652;9.194;2023-04-24T07:58:42;2.00;;;1.20;;
69410;SDS011;56604;48.652;9.194;2023-04-24T08:01:07;1.33;;;1.23;;
69410;SDS011;56604;48.652;9.194;2023-04-24T08:03:32;7.33;;;1.07;;
69410;SDS011;56604;48.652;9.194;2023-04-24T08:05:58;4.13;;;1.10;;
69410;SDS011;56604;48.652;9.194;2023-04-24T08:08:23;3.13;;;1.47;;
69410;SDS011;56604;48.652;9.194;2023-04-24T08:10:49;2.50;;;1.33;;
69410;SDS011;56604;48.652;9.194;2023-04-24T08:13:14;1.40;;;1.40;;
69410;SDS011;56604;48.652;9.194;2023-04-24T08:15:40;1.67;;;1.40;;
69410;SDS011;56604;48.652;9.194;2023-04-24T08:18:05;1.60;;;1.50;;
69410;SDS011;56604;48.652;9.194;2023-04-24T08:20:31;1.43;;;1.40;;
69410;SDS011;56604;48.652;9.194;2023-04-24T08:22:57;1.60;;;1.50;;
69410;SDS011;56604;48.652;9.194;2023-04-24T08:25:22;2.10;;;1.77;;
69410;SDS011;56604;48.652;9.194;2023-04-24T08:27:50;1.50;;;1.50;;
69410;SDS011;56604;48.652;9.194;2023-04-24T08:30:16;1.50;;;1.40;;
69410;SDS011;56604;48.652;9.194;2023-04-24T08:32:42;2.20;;;1.13;;
69410;SDS011;56604;48.652;9.194;2023-04-24T08:35:08;4.50;;;1.33;;
69410;SDS011;56604;48.652;9.194;2023-04-24T08:37:34;1.40;;;1.40;;
69410;SDS011;56604;48.652;9.194;2023-04-24T08:40:00;1.33;;;1.33;;
69410;SDS011;56604;48.652;9.194;2023-04-24T08:42:26;2.30;;;1.50;;
69410;SDS011;56604;48.652;9.194;2023-04-24T08:44:53;1.40;;;1.40;;
69410;SDS011;56604;48.652;9.194;2023-04-24T08:47:19;4.83;;;1.57;;
69410;SDS011;56604;48.652;9.194;2023-04-24T08:49:45;1.70;;;1.60;;
69410;SDS011;56604;48.652;9.194;2023-04-24T08:52:13;2.50;;;1.80;;
69410;SDS011;56604;48.652;9.194;2023-04-24T08:54:38;1.60;;;1.50;;
69410;SDS011;56604;48.652;9.194;2023-04-24T08:57:06;1.77;;;1.60;;
69410;SDS011;56604;48.652;9.194;2023-04-24T08:59:32;1.77;;;1.67;;
69410;SDS011;56604;48.652;9.194;2023-04-24T09:01:59;1.30;;;1.30;;
69410;SDS011;56604;48.652;9.194;2023-04-24T09:04:25;1.80;;;1.70;;
69410;SDS011;56604;48.652;9.194;2023-04-24T09:06:51;1.60;;;1.57;;
69410;SDS011;56604;48.652;9.194;2023-04-24T09:09:20;3.13;;;1.73;;
69410;SDS011;56604;48.652;9.194;2023-04-24T09:11:46;1.37;;;1.37;;
69410;SDS011;56604;48.652;9.194;2023-04-24T09:14:13;20.07;;;1.80;;
69410;SDS011;56604;48.652;9.194;2023-04-24T09:16:39;1.40;;;1.40;;
69410;SDS011;56604;48.652;9.194;2023-04-24T09:19:05;1.50;;;1.40;;
69410;SDS011;56604;48.652;9.194;2023-04-24T09:21:33;5.23;;;1.63;;
69410;SDS011;56604;48.652;9.194;2023-04-24T09:24:00;2.80;;;1.50;;
69410;SDS011;56604;48.652;9.194;2023-04-24T09:26:31;4.17;;;1.57;;
69410;SDS011;56604;48.652;9.194;2023-04-24T09:28:59;1.40;;;1.30;;
69410;SDS011;56604;48.652;9.194;2023-04-24T09:31:26;1.50;;;1.40;;
69410;SDS011;56604;48.652;9.194;2023-04-24T09:33:53;1.20;;;1.10;;
69410;SDS011;56604;48.652;9.194;2023-04-24T09:36:26;1.40;;;1.30;;
69410;SDS011;56604;48.652;9.194;2023-04-24T09:38:53;3.80;;;1.53;;
69410;SDS011;56604;48.652;9.194;2023-04-24T09:41:23;1.30;;;1.30;;
69410;SDS011;56604;48.652;9.194;2023-04-24T09:43:48;5.40;;;2.30;;
69410;SDS011;56604;48.652;9.194;2023-04-24T09:46:14;2.03;;;1.43;;
69410;SDS011;56604;48.652;9.194;2023-04-24T09:48:39;1.40;;;1.30;;
69410;SDS011;56604;48.652;9.194;2023-04-24T09:51:05;1.97;;;1.10;;
69410;SDS011;56604;48.652;9.194;2023-04-24T09:53:37;1.77;;;1.30;;
69410;SDS011;56604;48.652;9.194;2023-04-24T09:56:07;6.73;;;1.30;;
69410;SDS011;56604;48.652;9.194;2023-04-24T09:58:34;1.30;;;1.20;;
69410;SDS011;56604;48.652;9.194;2023-04-24T10:01:04;1.00;;;1.00;;
69410;SDS011;56604;48.652;9.194;2023-04-24T10:03:31;1.53;;;1.10;;
69410;SDS011;56604;48.652;9.194;2023-04-24T10:05:58;1.97;;;1.40;;
69410;SDS011;56604;48.652;9.194;2023-04-24T10:08:24;1.23;;;1.13;;
69410;SDS011;56604;48.652;9.194;2023-04-24T10:10:51;1.60;;;1.23;;
69410;SDS011;56604;48.652;9.194;2023-04-24T10:13:17;3.90;;;1.30;;
69410;SDS011;56604;48.652;9.194;2023-04-24T10:15:42;1.40;;;1.30;;
69410;SDS011;56604;48.652;9.194;2023-04-24T10:18:09;1.20;;;1.20;;
69410;SDS011;56604;48.652;9.194;2023-04-24T10:20:36;2.63;;;1.30;;
69410;SDS011;56604;48.652;9.194;2023-04-24T10:23:02;1.10;;;1.10;;
69410;SDS011;56604;48.652;9.194;2023-04-24T10:25:29;1.40;;;1.30;;
69410;SDS011;56604;48.652;9.194;2023-04-24T10:27:56;1.03;;;0.93;;
69410;SDS011;56604;48.652;9.194;2023-04-24T10:30:24;1.27;;;1.27;;
69410;SDS011;56604;48.652;9.194;2023-04-24T10:32:52;1.33;;;1.23;;
69410;SDS011;56604;48.652;9.194;2023-04-24T10:35:18;8.33;;;2.17;;
69410;SDS011;56604;48.652;9.194;2023-04-24T10:37:48;1.03;;;1.03;;
69410;SDS011;56604;48.652;9.194;2023-04-24T10:40:19;0.87;;;0.87;;
69410;SDS011;56604;48.652;9.194;2023-04-24T10:42:56;2.90;;;0.93;;
69410;SDS011;56604;48.652;9.194;2023-04-24T10:45:22;2.83;;;0.87;;
69410;SDS011;56604;48.652;9.194;2023-04-24T10:47:58;1.00;;;1.00;;
69410;SDS011;56604;48.652;9.194;2023-04-24T10:50:29;1.50;;;1.40;;
69410;SDS011;56604;48.652;9.194;2023-04-24T10:53:06;2.20;;;1.30;;
69410;SDS011;56604;48.652;9.194;2023-04-24T10:55:44;0.93;;;0.93;;
69410;SDS011;56604;48.652;9.194;2023-04-24T10:58:14;1.00;;;1.00;;
69410;SDS011;56604;48.652;9.194;2023-04-24T11:00:42;1.03;;;1.03;;
69410;SDS011;56604;48.652;9.194;2023-04-24T11:05:55;1.23;;;0.90;;
69410;SDS011;56604;48.652;9.194;2023-04-24T11:08:23;6.00;;;1.23;;
69410;SDS011;56604;48.652;9.194;2023-04-24T11:11:00;1.23;;;1.03;;
69410;SDS011;56604;48.652;9.194;2023-04-24T11:14:00;1.10;;;1.10;;
69410;SDS011;56604;48.652;9.194;2023-04-24T11:16:26;1.47;;;1.40;;
69410;SDS011;56604;48.652;9.194;2023-04-24T11:19:04;1.10;;;1.10;;
69410;SDS011;56604;48.652;9.194;2023-04-24T11:22:15;1.27;;;1.27;;
69410;SDS011;56604;48.652;9.194;2023-04-24T11:32:15;1.20;;;1.10;;
69410;SDS011;56604;48.652;9.194;2023-04-24T11:34:45;1.17;;;1.17;;
69410;SDS011;56604;48.652;9.194;2023-04-24T11:37:11;1.70;;;1.17;;
69410;SDS011;56604;48.652;9.194;2023-04-24T11:39:37;2.80;;;1.40;;
69410;SDS011;56604;48.652;9.194;2023-04-24T11:42:03;1.43;;;1.10;;
69410;SDS011;56604;48.652;9.194;2023-04-24T11:44:28;1.10;;;1.10;;
69410;SDS011;56604;48.652;9.194;2023-04-24T11:46:55;3.50;;;1.40;;
69410;SDS011;56604;48.652;9.194;2023-04-24T11:49:21;7.83;;;1.50;;
69410;SDS011;56604;48.652;9.194;2023-04-24T11:51:46;1.73;;;1.50;;
69410;SDS011;56604;48.652;9.194;2023-04-24T11:54:11;1.30;;;1.20;;
69410;SDS011;56604;48.652;9.194;2023-04-24T11:56:37;0.90;;;0.90;;
69410;SDS011;56604;48.652;9.194;2023-04-24T11:59:03;2.63;;;1.20;;
69410;SDS011;56604;48.652;9.194;2023-04-24T12:01:29;2.53;;;1.30;;
69410;SDS011;56604;48.652;9.194;2023-04-24T12:03:59;1.60;;;1.50;;
69410;SDS011;56604;48.652;9.194;2023-04-24T12:06:25;1.60;;;1.27;;
69410;SDS011;56604;48.652;9.194;2023-04-24T12:08:52;1.33;;;1.00;;
69410;SDS011;56604;48.652;9.194;2023-04-24T12:11:19;1.43;;;1.30;;
69410;SDS011;56604;48.652;9.194;2023-04-24T12:13:45;1.43;;;1.43;;
69410;SDS011;56604;48.652;9.194;2023-04-24T12:16:10;1.37;;;1.37;;
69410;SDS011;56604;48.652;9.194;2023-04-24T12:18:40;1.50;;;1.40;;
69410;SDS011;56604;48.652;9.194;2023-04-24T12:21:16;1.50;;;1.50;;
69410;SDS011;56604;48.652;9.194;2023-04-24T12:23:46;2.03;;;1.37;;
69410;SDS011;56604;48.652;9.194;2023-04-24T12:26:18;1.40;;;1.40;;
69410;SDS011;56604;48.652;9.194;2023-04-24T12:28:46;1.57;;;1.40;;
69410;SDS011;56604;48.652;9.194;2023-04-24T12:31:14;1.50;;;1.40;;
69410;SDS011;56604;48.652;9.194;2023-04-24T12:33:39;3.63;;;1.50;;
69410;SDS011;56604;48.652;9.194;2023-04-24T12:36:05;1.57;;;1.50;;
69410;SDS011;56604;48.652;9.194;2023-04-24T12:38:32;1.43;;;1.33;;
69410;SDS011;56604;48.652;9.194;2023-04-24T12:41:06;1.43;;;1.20;;
69410;SDS011;56604;48.652;9.194;2023-04-24T12:43:32;1.07;;;1.07;;
69410;SDS011;56604;48.652;9.194;2023-04-24T12:45:58;1.83;;;1.10;;
69410;SDS011;56604;48.652;9.194;2023-04-24T12:48:24;1.40;;;1.33;;
69410;SDS011;56604;48.652;9.194;2023-04-24T12:50:50;1.80;;;1.30;;
69410;SDS011;56604;48.652;9.194;2023-04-24T12:53:16;3.60;;;1.50;;
69410;SDS011;56604;48.652;9.194;2023-04-24T12:55:41;1.80;;;1.40;;
69410;SDS011;56604;48.652;9.194;2023-04-24T12:58:07;5.10;;;1.50;;
69410;SDS011;56604;48.652;9.194;2023-04-24T13:00:32;0.93;;;0.93;;
69410;SDS011;56604;48.652;9.194;2023-04-24T13:02:57;1.40;;;1.30;;
69410;SDS011;56604;48.652;9.194;2023-04-24T13:05:23;1.40;;;1.30;;
69410;SDS011;56604;48.652;9.194;2023-04-24T13:07:48;1.60;;;1.50;;
69410;SDS011;56604;48.652;9.194;2023-04-24T13:10:13;4.43;;;1.30;;
69410;SDS011;56604;48.652;9.194;2023-04-24T13:12:39;1.20;;;1.20;;
69410;SDS011;56604;48.652;9.194;2023-04-24T13:15:05;1.20;;;1.20;;
69410;SDS011;56604;48.652;9.194;2023-04-24T13:17:31;1.73;;;1.60;;
69410;SDS011;56604;48.652;9.194;2023-04-24T13:19:56;1.63;;;1.53;;
69410;SDS011;56604;48.652;9.194;2023-04-24T13:22:21;1.37;;;1.37;;
69410;SDS011;56604;48.652;9.194;2023-04-24T13:24:47;1.70;;;1.70;;
69410;SDS011;56604;48.652;9.194;2023-04-24T13:27:15;1.47;;;1.37;;
69410;SDS011;56604;48.652;9.194;2023-04-24T13:29:41;2.33;;;2.10;;
69410;SDS011;56604;48.652;9.194;2023-04-24T13:32:06;1.60;;;1.50;;
69410;SDS011;56604;48.652;9.194;2023-04-24T13:34:32;2.70;;;1.73;;
69410;SDS011;56604;48.652;9.194;2023-04-24T13:36:59;1.70;;;1.70;;
69410;SDS011;56604;48.652;9.194;2023-04-24T13:39:25;1.37;;;1.30;;
69410;SDS011;56604;48.652;9.194;2023-04-24T13:41:50;1.83;;;1.73;;
69410;SDS011;56604;48.652;9.194;2023-04-24T13:44:17;2.00;;;1.90;;
69410;SDS011;56604;48.652;9.194;2023-04-24T13:46:44;1.67;;;1.67;;
69410;SDS011;56604;48.652;9.194;2023-04-24T13:49:11;1.67;;;1.57;;
69410;SDS011;56604;48.652;9.194;2023-04-24T13:51:40;1.80;;;1.70;;
69410;SDS011;56604;48.652;9.194;2023-04-24T13:54:07;1.50;;;1.50;;
69410;SDS011;56604;48.652;9.194;2023-04-24T13:56:32;2.70;;;1.60;;
69410;SDS011;56604;48.652;9.194;2023-04-24T13:58:58;9.60;;;1.53;;
69410;SDS011;56604;48.652;9.194;2023-04-24T14:01:23;1.77;;;1.63;;
69410;SDS011;56604;48.652;9.194;2023-04-24T14:03:52;2.07;;;1.97;;
69410;SDS011;56604;48.652;9.194;2023-04-24T14:06:18;1.70;;;1.60;;
69410;SDS011;56604;48.652;9.194;2023-04-24T14:08:47;8.23;;;1.60;;
69410;SDS011;56604;48.652;9.194;2023-04-24T14:11:13;1.60;;;1.60;;
69410;SDS011;56604;48.652;9.194;2023-04-24T14:13:40;1.87;;;1.77;;
69410;SDS011;56604;48.652;9.194;2023-04-24T14:16:06;1.47;;;1.47;;
69410;SDS011;56604;48.652;9.194;2023-04-24T14:18:32;2.30;;;2.00;;
69410;SDS011;56604;48.652;9.194;2023-04-24T14:20:57;2.33;;;2.00;;
69410;SDS011;56604;48.652;9.194;2023-04-24T14:23:23;3.13;;;1.90;;
69410;SDS011;56604;48.652;9.194;2023-04-24T14:25:48;1.87;;;1.77;;
69410;SDS011;56604;48.652;9.194;2023-04-24T14:28:17;1.73;;;1.63;;
69410;SDS011;56604;48.652;9.194;2023-04-24T14:30:43;1.60;;;1.60;;
69410;SDS011;56604;48.652;9.194;2023-04-24T14:33:08;4.60;;;2.10;;
69410;SDS011;56604;48.652;9.194;2023-04-24T14:35:34;1.97;;;1.87;;
69410;SDS011;56604;48.652;9.194;2023-04-24T14:38:01;1.70;;;1.60;;
69410;SDS011;56604;48.652;9.194;2023-04-24T14:40:26;1.70;;;1.60;;
69410;SDS011;56604;48.652;9.194;2023-04-24T14:42:51;4.40;;;2.00;;
69410;SDS011;56604;48.652;9.194;2023-04-24T14:45:17;3.00;;;2.63;;
69410;SDS011;56604;48.652;9.194;2023-04-24T14:47:43;1.80;;;1.70;;
69410;SDS011;56604;48.652;9.194;2023-04-24T14:50:09;2.17;;;1.80;;
69410;SDS011;56604;48.652;9.194;2023-04-24T14:52:34;1.70;;;1.60;;